Time;durP1;ratioP1;P1;durP2;ratioP2;P2;SDS_P1;SDS_P2;PMS_P1;PMS_P2;Temp;Humidity;BMP_temperature;BMP_pressure;BME280_temperature;BME280_humidity;BME280_pressure;Samples;Min_cycle;Max_cycle;Signal;HPM_P1;HPM_P2
2022/04/23 00:00:28;;;;;;;13.67;12.27;;;18.90;42.90;;;;;;5019908;28;20193;-41
2022/04/23 00:02:53;;;;;;;14.90;13.40;;;18.80;43.00;;;;;;5026106;28;20991;-41
2022/04/23 00:05:19;;;;;;;13.67;12.33;;;18.90;43.10;;;;;;5018760;28;20269;-41
2022/04/23 00:07:44;;;;;;;13.10;11.83;;;18.60;43.40;;;;;;5020759;28;20189;-41
2022/04/23 00:10:10;;;;;;;14.40;13.00;;;18.60;43.60;;;;;;5030106;28;20193;-41
2022/04/23 00:12:36;;;;;;;13.17;11.97;;;18.40;44.10;;;;;;5023304;28;20200;-41
2022/04/23 00:15:02;;;;;;;13.57;12.30;;;18.20;45.30;;;;;;5021893;28;21621;-40
2022/04/23 00:17:28;;;;;;;13.40;12.00;;;17.70;45.80;;;;;;5018502;28;20479;-41
2022/04/23 00:19:54;;;;;;;13.60;12.20;;;17.60;46.00;;;;;;5027023;28;20280;-41
2022/04/23 00:22:19;;;;;;;11.27;10.17;;;17.90;45.60;;;;;;5024784;28;20255;-41
2022/04/23 00:24:45;;;;;;;13.13;11.83;;;18.00;45.70;;;;;;5027794;28;20309;-41
2022/04/23 00:27:11;;;;;;;12.10;10.90;;;18.20;45.30;;;;;;5022470;28;20743;-41
2022/04/23 00:29:36;;;;;;;12.07;10.90;;;18.30;45.10;;;;;;5020949;28;20236;-41
2022/04/23 00:32:05;;;;;;;14.90;11.27;;;18.50;44.90;;;;;;5027571;28;20556;-41
2022/04/23 00:34:31;;;;;;;13.20;10.83;;;18.70;44.20;;;;;;5024862;28;20224;-41
2022/04/23 00:36:56;;;;;;;12.93;11.77;;;18.90;43.80;;;;;;5026959;28;20486;-41
2022/04/23 00:39:22;;;;;;;13.17;11.90;;;19.00;43.60;;;;;;5021721;28;20201;-41
2022/04/23 00:41:48;;;;;;;11.73;10.70;;;19.00;43.30;;;;;;5027752;28;20201;-41
2022/04/23 00:44:15;;;;;;;13.20;12.00;;;19.00;43.40;;;;;;5030171;28;20193;-41
2022/04/23 00:46:41;;;;;;;11.80;10.57;;;18.90;43.40;;;;;;5028898;28;20229;-41
2022/04/23 00:49:07;;;;;;;12.80;11.57;;;19.00;43.50;;;;;;5025920;28;20446;-41
2022/04/23 00:51:33;;;;;;;16.47;13.13;;;19.00;43.40;;;;;;5029604;28;20444;-41
2022/04/23 00:54:07;;;;;;;12.23;10.70;;;18.90;43.30;;;;;;5021828;28;20279;-41
2022/04/23 00:56:35;;;;;;;14.30;12.87;;;18.90;43.40;;;;;;5024034;28;20497;-41
2022/04/23 00:59:04;;;;;;;11.73;10.67;;;18.90;43.40;;;;;;5027501;28;20554;-41
2022/04/23 01:01:29;;;;;;;12.40;11.00;;;18.90;43.50;;;;;;5022130;28;20542;-41
2022/04/23 01:03:57;;;;;;;12.40;11.23;;;18.90;43.50;;;;;;5029129;28;20526;-41
2022/04/23 01:06:24;;;;;;;12.60;11.40;;;19.00;43.50;;;;;;5023453;28;20259;-42
2022/04/23 01:08:50;;;;;;;13.60;10.87;;;19.10;43.60;;;;;;5025008;28;20808;-41
2022/04/23 01:11:17;;;;;;;11.17;9.87;;;19.00;43.20;;;;;;5027783;28;20470;-41
2022/04/23 01:13:44;;;;;;;11.87;10.80;;;18.90;43.60;;;;;;5027715;28;20563;-41
2022/04/23 01:16:10;;;;;;;13.07;11.87;;;18.90;43.70;;;;;;5028855;28;20558;-41
2022/04/23 01:18:41;;;;;;;13.77;12.47;;;18.90;43.90;;;;;;5030193;28;22380;-41
2022/04/23 01:21:10;;;;;;;12.60;11.30;;;18.90;43.60;;;;;;5028947;28;20825;-41
2022/04/23 01:23:36;;;;;;;12.63;11.40;;;18.90;43.60;;;;;;5019364;28;20490;-41
2022/04/23 01:26:04;;;;;;;10.60;9.63;;;18.90;43.50;;;;;;5026473;28;21149;-41
2022/04/23 01:28:33;;;;;;;10.60;9.70;;;18.90;43.70;;;;;;5030511;28;20443;-41
2022/04/23 01:30:59;;;;;;;11.30;9.70;;;18.90;43.80;;;;;;5027602;28;20476;-41
2022/04/23 01:33:24;;;;;;;10.00;9.10;;;18.70;44.30;;;;;;5026740;28;20471;-41
2022/04/23 01:35:50;;;;;;;10.33;9.43;;;18.60;44.50;;;;;;5024079;28;20248;-41
2022/04/23 01:38:16;;;;;;;9.63;8.70;;;18.50;44.80;;;;;;5018285;28;20190;-41
2022/04/23 01:40:42;;;;;;;9.00;8.20;;;18.40;45.00;;;;;;5019305;28;20213;-41
2022/04/23 01:43:09;;;;;;;10.30;8.13;;;18.40;45.20;;;;;;5023765;28;20551;-40
2022/04/23 01:45:35;;;;;;;8.97;8.07;;;18.30;45.40;;;;;;5026693;28;20446;-41
2022/04/23 01:48:01;;;;;;;10.50;9.60;;;18.30;45.50;;;;;;5018215;28;20863;-41
2022/04/23 01:50:27;;;;;;;11.17;9.60;;;18.30;45.40;;;;;;5021975;28;20480;-40
2022/04/23 01:52:52;;;;;;;9.90;8.93;;;18.30;45.50;;;;;;5027832;28;20201;-40
2022/04/23 01:55:19;;;;;;;9.57;8.67;;;18.20;45.60;;;;;;5029120;28;20295;-41
2022/04/23 01:57:44;;;;;;;10.03;9.03;;;18.20;45.60;;;;;;5026690;28;20681;-41
2022/04/23 02:00:13;;;;;;;9.70;8.87;;;18.20;45.60;;;;;;5023768;28;20458;-41
2022/04/23 02:02:40;;;;;;;9.03;8.07;;;18.20;45.60;;;;;;5028342;28;20201;-40
2022/04/23 02:05:07;;;;;;;9.23;8.33;;;18.30;45.60;;;;;;5026815;28;20440;-40
2022/04/23 02:07:39;;;;;;;9.47;8.57;;;18.30;45.50;;;;;;5022365;28;20470;-41
2022/04/23 02:10:13;;;;;;;9.20;8.40;;;18.40;45.60;;;;;;5028577;28;20455;-43
2022/04/23 02:12:39;;;;;;;10.63;9.63;;;18.40;45.70;;;;;;5029892;28;20479;-41
2022/04/23 02:15:09;;;;;;;10.57;9.67;;;18.40;45.70;;;;;;5023091;28;20565;-41
2022/04/23 02:17:37;;;;;;;9.97;9.07;;;18.40;45.50;;;;;;5024917;28;20444;-41
2022/04/23 02:20:10;;;;;;;8.73;7.93;;;18.50;45.30;;;;;;5024140;28;20455;-41
2022/04/23 02:22:36;;;;;;;9.50;8.70;;;18.50;45.30;;;;;;5024774;28;20440;-41
2022/04/23 02:25:04;;;;;;;8.30;7.63;;;18.50;45.40;;;;;;5027486;28;20471;-41
2022/04/23 02:27:40;;;;;;;8.27;7.57;;;18.30;45.90;;;;;;5025188;28;20440;-41
2022/04/23 02:30:06;;;;;;;8.03;7.33;;;17.80;47.10;;;;;;5020098;28;20465;-41
2022/04/23 02:32:32;;;;;;;7.77;7.07;;;17.80;47.50;;;;;;5024712;28;20505;-41
2022/04/23 02:34:57;;;;;;;8.80;8.00;;;17.80;47.50;;;;;;5028230;28;20898;-42
2022/04/23 02:37:27;;;;;;;8.40;7.70;;;17.90;47.20;;;;;;5024885;28;20200;-41
2022/04/23 02:39:52;;;;;;;7.60;6.90;;;18.00;47.20;;;;;;5019395;28;20219;-41
2022/04/23 02:42:18;;;;;;;7.67;6.97;;;18.10;47.10;;;;;;5020675;28;20445;-41
2022/04/23 02:44:45;;;;;;;7.30;6.70;;;18.20;46.80;;;;;;5024470;28;20221;-41
2022/04/23 02:47:11;;;;;;;8.30;7.53;;;18.20;46.50;;;;;;5019909;28;20514;-41
2022/04/23 02:49:37;;;;;;;7.67;7.03;;;18.30;46.40;;;;;;5027896;28;20819;-41
2022/04/23 02:52:03;;;;;;;9.20;6.87;;;18.30;46.20;;;;;;5021449;28;20288;-41
2022/04/23 02:54:28;;;;;;;8.33;7.60;;;18.40;46.30;;;;;;5021027;28;20225;-41
2022/04/23 02:56:55;;;;;;;7.33;6.20;;;18.40;46.20;;;;;;5018091;28;20448;-41
2022/04/23 02:59:21;;;;;;;7.63;6.93;;;18.40;46.00;;;;;;5027976;28;20263;-41
2022/04/23 03:01:46;;;;;;;7.50;6.90;;;18.50;46.10;;;;;;5022983;28;20444;-41
2022/04/23 03:04:12;;;;;;;7.60;7.00;;;18.50;45.90;;;;;;5030027;28;20194;-41
2022/04/23 03:06:38;;;;;;;8.77;7.60;;;18.50;45.80;;;;;;5022202;28;20276;-41
2022/04/23 03:09:04;;;;;;;7.10;6.50;;;18.50;45.70;;;;;;5024183;28;20198;-41
2022/04/23 03:11:30;;;;;;;8.10;7.30;;;18.50;45.70;;;;;;5025429;28;20274;-41
2022/04/23 03:13:58;;;;;;;7.47;6.77;;;18.50;45.60;;;;;;5018167;28;20292;-41
2022/04/23 03:16:24;;;;;;;7.50;6.90;;;18.50;45.60;;;;;;5019988;28;20480;-42
2022/04/23 03:18:51;;;;;;;7.60;7.00;;;18.50;45.50;;;;;;5017234;28;20954;-40
2022/04/23 03:21:17;;;;;;;7.77;7.17;;;18.50;45.50;;;;;;5024410;28;20497;-41
2022/04/23 03:23:42;;;;;;;8.07;7.37;;;18.50;45.60;;;;;;5018120;28;20448;-41
2022/04/23 03:26:08;;;;;;;8.20;7.50;;;18.50;45.60;;;;;;5024584;28;20189;-41
2022/04/23 03:28:35;;;;;;;8.37;7.53;;;18.50;45.30;;;;;;5027710;28;20221;-41
2022/04/23 03:31:00;;;;;;;7.47;6.87;;;18.50;45.10;;;;;;5024599;28;20192;-41
2022/04/23 03:33:27;;;;;;;8.23;7.53;;;18.50;44.60;;;;;;5027307;28;20459;-41
2022/04/23 03:35:52;;;;;;;7.73;7.13;;;18.50;44.70;;;;;;5026927;28;20573;-41
2022/04/23 03:38:18;;;;;;;8.00;7.30;;;18.50;44.70;;;;;;5019793;28;20448;-41
2022/04/23 03:40:43;;;;;;;7.77;7.17;;;18.50;44.80;;;;;;5028630;28;20264;-41
2022/04/23 03:43:09;;;;;;;7.60;7.00;;;18.40;44.60;;;;;;5024454;28;20192;-40
2022/04/23 03:45:37;;;;;;;7.73;7.00;;;18.50;44.80;;;;;;5017137;28;20225;-41
2022/04/23 03:48:03;;;;;;;11.67;7.40;;;18.50;44.90;;;;;;5013457;28;20303;-41
2022/04/23 03:50:33;;;;;;;7.13;6.57;;;18.50;44.80;;;;;;5020958;28;21147;-43
2022/04/23 03:52:58;;;;;;;8.07;7.37;;;18.50;44.70;;;;;;5022940;28;20444;-41
2022/04/23 03:55:26;;;;;;;7.80;7.10;;;18.50;44.90;;;;;;5024184;28;20503;-41
2022/04/23 03:57:54;;;;;;;8.60;7.90;;;18.50;44.70;;;;;;5025673;28;20204;-41
2022/04/23 04:00:20;;;;;;;7.33;6.63;;;18.50;44.80;;;;;;5026063;28;20455;-41
2022/04/23 04:02:46;;;;;;;7.97;7.27;;;18.50;44.90;;;;;;5028530;28;20531;-41
2022/04/23 04:05:12;;;;;;;7.30;6.60;;;18.50;44.90;;;;;;5024053;28;20240;-41
2022/04/23 04:07:46;;;;;;;7.37;6.67;;;18.50;45.10;;;;;;5027452;28;20440;-41
2022/04/23 04:10:15;;;;;;;7.83;6.57;;;18.50;45.10;;;;;;5019400;28;21441;-41
2022/04/23 04:12:41;;;;;;;7.60;6.90;;;18.60;45.10;;;;;;5023168;28;20451;-41
2022/04/23 04:15:08;;;;;;;6.70;6.10;;;18.50;44.90;;;;;;5026792;28;20498;-41
2022/04/23 04:17:35;;;;;;;7.57;6.97;;;18.50;45.30;;;;;;5026975;28;20205;-41
2022/04/23 04:20:01;;;;;;;6.93;6.30;;;18.40;45.40;;;;;;5025882;28;20443;-41
2022/04/23 04:22:28;;;;;;;8.70;7.90;;;18.30;45.50;;;;;;5027792;28;20447;-41
2022/04/23 04:24:53;;;;;;;9.70;8.80;;;18.20;45.60;;;;;;5027523;28;20455;-42
2022/04/23 04:27:19;;;;;;;9.60;8.50;;;18.10;45.90;;;;;;5018791;28;20459;-41
2022/04/23 04:29:44;;;;;;;10.10;9.17;;;17.80;46.30;;;;;;5022162;28;20189;-42
2022/04/23 04:32:10;;;;;;;10.17;9.17;;;17.50;46.90;;;;;;5023742;28;20251;-41
2022/04/23 04:34:36;;;;;;;9.57;8.70;;;17.40;47.40;;;;;;5025968;28;20243;-41
2022/04/23 04:37:06;;;;;;;10.57;9.67;;;17.20;47.90;;;;;;5026411;28;20280;-41
2022/04/23 04:39:32;;;;;;;10.17;9.27;;;17.00;48.20;;;;;;5021961;28;20610;-42
2022/04/23 04:41:57;;;;;;;10.43;9.43;;;16.90;48.50;;;;;;5024608;28;20578;-42
2022/04/23 04:44:23;;;;;;;10.33;9.17;;;16.50;49.30;;;;;;5012862;28;20971;-41
2022/04/23 04:46:49;;;;;;;9.73;8.80;;;16.30;49.90;;;;;;5025778;28;20189;-41
2022/04/23 04:49:14;;;;;;;10.13;9.17;;;16.20;50.40;;;;;;5023842;28;20554;-42
2022/04/23 04:51:40;;;;;;;9.90;8.90;;;16.10;50.70;;;;;;5022286;28;20193;-41
2022/04/23 04:54:06;;;;;;;10.27;9.27;;;16.00;50.90;;;;;;5026665;28;20609;-41
2022/04/23 04:56:32;;;;;;;11.03;10.00;;;16.00;50.90;;;;;;5016576;28;20193;-41
2022/04/23 04:58:58;;;;;;;10.80;9.80;;;16.00;51.00;;;;;;5026089;28;20436;-41
2022/04/23 05:01:24;;;;;;;9.93;9.03;;;16.10;51.00;;;;;;5022803;28;20943;-41
2022/04/23 05:03:51;;;;;;;10.40;9.40;;;16.10;51.00;;;;;;5022294;28;20443;-41
2022/04/23 05:06:17;;;;;;;9.50;8.47;;;16.20;51.00;;;;;;5017751;28;20208;-41
2022/04/23 05:08:43;;;;;;;10.60;9.60;;;16.20;50.90;;;;;;5023429;28;20421;-41
2022/04/23 05:11:10;;;;;;;10.60;9.60;;;16.10;50.90;;;;;;5022473;28;20493;-41
2022/04/23 05:13:37;;;;;;;10.07;9.17;;;16.00;51.20;;;;;;5026796;28;20205;-41
2022/04/23 05:16:04;;;;;;;12.00;8.73;;;16.00;51.40;;;;;;5021280;28;20463;-40
2022/04/23 05:18:30;;;;;;;14.73;8.03;;;16.10;51.80;;;;;;5027604;28;20471;-40
2022/04/23 05:20:56;;;;;;;8.93;8.10;;;16.20;51.90;;;;;;5023893;28;20567;-41
2022/04/23 05:23:21;;;;;;;9.83;8.90;;;16.20;51.70;;;;;;5021740;28;20910;-41
2022/04/23 05:25:47;;;;;;;9.53;8.63;;;16.40;51.30;;;;;;5024036;28;20193;-40
2022/04/23 05:28:12;;;;;;;8.93;8.10;;;16.40;51.00;;;;;;5027188;28;20251;-40
2022/04/23 05:30:39;;;;;;;9.63;8.63;;;16.50;50.90;;;;;;5025374;28;20560;-41
2022/04/23 05:33:05;;;;;;;7.20;5.30;;;16.70;50.60;;;;;;5025477;28;20197;-41
2022/04/23 05:35:32;;;;;;;7.80;6.00;;;16.70;50.50;;;;;;5025260;28;20494;-41
2022/04/23 05:37:57;;;;;;;8.40;7.60;;;17.00;49.80;;;;;;5022951;28;20932;-41
2022/04/23 05:40:23;;;;;;;6.63;6.03;;;17.20;48.70;;;;;;5026974;28;20444;-41
2022/04/23 05:42:49;;;;;;;7.97;7.17;;;17.50;48.30;;;;;;5019989;28;20610;-42
2022/04/23 05:45:14;;;;;;;9.00;8.10;;;17.60;47.70;;;;;;5025458;28;20304;-41
2022/04/23 05:47:41;;;;;;;12.47;8.60;;;17.80;47.30;;;;;;5028866;28;20244;-41
2022/04/23 05:50:08;;;;;;;10.20;9.20;;;18.00;47.10;;;;;;5022312;28;20627;-41
2022/04/23 05:52:34;;;;;;;8.30;7.50;;;17.90;47.40;;;;;;5026939;28;20440;-41
2022/04/23 05:55:00;;;;;;;8.40;7.60;;;17.90;47.30;;;;;;5020126;28;20530;-41
2022/04/23 05:57:26;;;;;;;7.67;6.97;;;18.00;47.00;;;;;;5026760;28;20944;-42
2022/04/23 05:59:52;;;;;;;8.03;7.33;;;18.00;46.90;;;;;;5023971;28;20190;-41
2022/04/23 06:02:17;;;;;;;8.90;8.10;;;18.00;47.10;;;;;;5024199;28;20626;-41
2022/04/23 06:04:45;;;;;;;7.63;6.93;;;17.70;47.90;;;;;;5029510;28;20308;-41
2022/04/23 06:07:11;;;;;;;9.30;8.40;;;17.40;48.40;;;;;;5024864;28;20189;-41
2022/04/23 06:09:36;;;;;;;8.40;7.70;;;17.20;49.10;;;;;;5030089;28;20518;-41
2022/04/23 06:12:02;;;;;;;8.00;7.20;;;17.10;49.60;;;;;;5025583;28;20285;-41
2022/04/23 06:14:28;;;;;;;7.63;6.93;;;17.00;49.60;;;;;;5025153;28;20235;-41
2022/04/23 06:16:53;;;;;;;7.70;6.97;;;17.00;49.60;;;;;;5019091;28;20200;-41
2022/04/23 06:19:19;;;;;;;7.70;7.00;;;17.10;49.70;;;;;;5021715;28;20869;-41
2022/04/23 06:21:44;;;;;;;8.17;7.40;;;17.30;49.30;;;;;;5019471;28;20600;-41
2022/04/23 06:24:10;;;;;;;7.13;6.43;;;16.60;50.30;;;;;;5026744;28;20197;-41
2022/04/23 06:26:36;;;;;;;7.40;6.70;;;16.30;51.20;;;;;;5012596;28;20204;-41
2022/04/23 06:29:01;;;;;;;7.40;6.70;;;16.60;51.00;;;;;;5024302;28;20204;-41
2022/04/23 06:31:27;;;;;;;7.80;7.10;;;16.70;50.50;;;;;;5027212;28;20197;-41
2022/04/23 06:33:52;;;;;;;7.87;7.07;;;16.20;51.20;;;;;;5030761;28;20386;-41
2022/04/23 06:36:18;;;;;;;6.93;6.33;;;16.10;51.80;;;;;;5028998;28;20224;-41
2022/04/23 06:38:44;;;;;;;6.40;5.80;;;16.00;52.20;;;;;;5029045;28;20205;-41
2022/04/23 06:41:09;;;;;;;7.77;7.07;;;16.00;52.20;;;;;;5030061;28;20197;-41
2022/04/23 06:43:35;;;;;;;7.80;7.10;;;16.20;52.00;;;;;;5029689;28;20189;-41
2022/04/23 06:46:00;;;;;;;6.80;6.20;;;15.90;52.20;;;;;;5030917;28;20217;-41
2022/04/23 06:48:26;;;;;;;7.33;6.63;;;16.00;52.30;;;;;;5030914;28;20279;-41
2022/04/23 06:50:51;;;;;;;7.97;7.17;;;16.20;51.90;;;;;;5020094;28;20194;-41
2022/04/23 06:53:17;;;;;;;6.97;6.37;;;16.20;51.70;;;;;;5028414;28;20684;-41
2022/04/23 06:55:42;;;;;;;6.20;5.70;;;16.20;51.90;;;;;;5029435;28;20677;-42
2022/04/23 06:58:08;;;;;;;7.80;6.87;;;15.80;52.70;;;;;;5031882;28;20645;-41
2022/04/23 07:00:33;;;;;;;8.20;7.43;;;15.90;52.60;;;;;;5029615;28;20209;-41
2022/04/23 07:02:59;;;;;;;7.67;6.97;;;15.90;52.40;;;;;;5026341;28;20224;-41
2022/04/23 07:05:24;;;;;;;7.97;7.20;;;15.70;52.50;;;;;;5016777;28;20243;-43
2022/04/23 07:08:03;;;;;;;6.00;5.40;;;15.00;53.20;;;;;;5027119;28;20214;-41
2022/04/23 07:10:31;;;;;;;6.30;5.70;;;15.30;54.10;;;;;;5028394;28;20786;-41
2022/04/23 07:12:57;;;;;;;6.00;5.50;;;15.50;53.70;;;;;;5030367;28;20444;-41
2022/04/23 07:15:24;;;;;;;5.30;4.90;;;15.60;53.10;;;;;;5028292;28;20898;-42
2022/04/23 07:17:51;;;;;;;6.33;5.73;;;16.00;52.60;;;;;;5029932;28;20443;-41
2022/04/23 07:20:18;;;;;;;6.17;5.57;;;15.80;52.70;;;;;;5028333;28;20506;-41
2022/04/23 07:24:03;;;;;;;5.20;4.77;;;15.90;52.80;;;;;;5030187;28;20533;-41
2022/04/23 07:25:31;;;;;;;5.57;5.07;;;15.70;53.00;;;;;;5029101;28;20456;-41
2022/04/23 07:27:58;;;;;;;5.83;5.13;;;15.60;53.10;;;;;;5029056;28;20551;-41
2022/04/23 07:30:24;;;;;;;6.10;5.40;;;16.00;52.50;;;;;;5029883;28;20442;-41
2022/04/23 07:33:01;;;;;;;5.70;5.20;;;16.20;52.00;;;;;;5028505;28;20477;-41
2022/04/23 07:38:21;;;;;;;5.73;5.20;;;16.20;51.20;;;;;;5023966;28;20435;-41
2022/04/23 07:40:49;;;;;;;5.23;4.77;;;16.30;51.40;;;;;;5029404;28;20455;-41
2022/04/23 07:43:15;;;;;;;6.10;5.60;;;16.20;51.00;;;;;;5026443;28;20432;-41
2022/04/23 07:45:43;;;;;;;6.13;5.53;;;16.00;51.30;;;;;;5028861;28;20435;-41
2022/04/23 07:48:10;;;;;;;6.77;6.17;;;16.10;51.20;;;;;;5029290;28;20830;-41
2022/04/23 07:50:37;;;;;;;5.90;5.40;;;15.90;51.30;;;;;;5029151;28;20813;-41
2022/04/23 07:53:03;;;;;;;6.07;5.57;;;15.80;51.90;;;;;;5027806;28;20468;-41
2022/04/23 07:55:32;;;;;;;6.93;6.33;;;15.80;52.10;;;;;;5028554;28;21294;-41
2022/04/23 07:57:59;;;;;;;6.10;5.50;;;16.00;52.00;;;;;;5018660;28;20494;-41
2022/04/23 08:00:25;;;;;;;6.30;5.80;;;16.20;51.40;;;;;;5023581;28;20452;-42
2022/04/23 08:02:52;;;;;;;9.93;5.27;;;16.20;50.80;;;;;;5022401;28;20443;-42
2022/04/23 08:05:18;;;;;;;5.90;5.40;;;16.60;50.90;;;;;;5026922;28;20440;-42
2022/04/23 08:07:44;;;;;;;5.63;5.10;;;16.90;50.20;;;;;;5021925;28;20445;-42
2022/04/23 08:10:10;;;;;;;7.23;5.57;;;17.10;49.60;;;;;;5029023;28;20304;-42
2022/04/23 08:12:37;;;;;;;5.80;5.30;;;16.70;50.00;;;;;;5024307;28;20456;-41
2022/04/23 08:15:04;;;;;;;9.20;5.63;;;16.50;50.20;;;;;;5027868;28;20487;-41
2022/04/23 08:17:29;;;;;;;8.63;5.93;;;16.40;50.50;;;;;;5024622;28;20450;-41
2022/04/23 08:19:55;;;;;;;5.67;4.93;;;16.50;50.30;;;;;;5027559;28;20920;-42
2022/04/23 08:22:21;;;;;;;6.07;5.57;;;16.50;50.00;;;;;;5022358;28;20212;-42
2022/04/23 08:24:47;;;;;;;6.70;6.10;;;16.60;50.20;;;;;;5021530;28;20456;-41
2022/04/23 08:27:12;;;;;;;5.87;5.27;;;16.50;50.20;;;;;;5027229;28;20200;-42
2022/04/23 08:32:22;;;;;;;6.97;6.30;;;17.00;49.60;;;;;;5021709;28;20221;-42
2022/04/23 08:34:48;;;;;;;9.10;6.27;;;16.90;49.30;;;;;;5015817;28;20488;-41
2022/04/23 08:37:13;;;;;;;6.33;5.10;;;16.90;49.10;;;;;;5024814;28;20250;-41
2022/04/23 08:39:42;;;;;;;6.57;5.83;;;17.00;49.30;;;;;;5012719;28;20636;-42
2022/04/23 08:42:09;;;;;;;5.87;5.30;;;17.20;49.20;;;;;;5018350;28;20197;-42
2022/04/23 08:44:37;;;;;;;6.77;5.20;;;17.40;48.20;;;;;;5020160;28;20456;-41
2022/04/23 08:47:04;;;;;;;4.93;4.53;;;17.30;48.40;;;;;;5018539;28;20499;-41
2022/04/23 08:49:32;;;;;;;7.10;6.40;;;17.30;48.60;;;;;;5017491;28;20487;-40
2022/04/23 08:52:15;;;;;;;6.40;5.77;;;17.30;48.50;;;;;;5024318;28;20455;-41
2022/04/23 08:54:41;;;;;;;7.37;6.53;;;16.70;49.00;;;;;;5016347;28;20578;-41
2022/04/23 08:57:07;;;;;;;5.60;4.97;;;16.70;49.70;;;;;;5018774;28;20452;-41
2022/04/23 08:59:33;;;;;;;5.90;5.33;;;16.80;49.60;;;;;;5026526;28;20498;-42
2022/04/23 09:02:01;;;;;;;5.90;5.30;;;16.90;49.30;;;;;;5018447;28;20232;-41
2022/04/23 09:04:28;;;;;;;6.60;5.50;;;17.30;49.20;;;;;;5017869;28;20455;-41
2022/04/23 09:06:54;;;;;;;6.30;5.73;;;17.50;48.50;;;;;;5010908;28;20959;-42
2022/04/23 09:09:21;;;;;;;5.57;5.10;;;17.50;48.00;;;;;;5024274;28;20442;-41
2022/04/23 09:11:57;;;;;;;6.23;4.83;;;17.40;48.20;;;;;;5017321;28;20571;-41
2022/04/23 09:14:33;;;;;;;6.60;5.23;;;17.60;48.30;;;;;;5023534;28;20479;-41
2022/04/23 09:23:39;;;;;;;6.27;5.70;;;17.40;47.90;;;;;;5020021;28;20472;-41
2022/04/23 09:25:43;;;;;;;5.43;4.93;;;17.40;47.80;;;;;;5030219;28;20438;-41
2022/04/23 09:28:22;;;;;;;4.97;4.57;;;17.40;47.80;;;;;;5026173;28;20448;-41
2022/04/23 09:30:54;;;;;;;6.03;4.50;;;17.40;48.30;;;;;;5024753;28;20444;-41
2022/04/23 09:33:27;;;;;;;5.27;4.87;;;17.40;47.90;;;;;;5022176;28;20470;-41
2022/04/23 09:36:02;;;;;;;5.00;4.60;;;17.40;47.70;;;;;;5025299;28;20502;-41
2022/04/23 09:38:29;;;;;;;4.30;3.90;;;17.60;47.80;;;;;;5020080;28;20447;-41
2022/04/23 09:40:56;;;;;;;4.90;4.50;;;17.70;47.80;;;;;;5025771;28;20501;-41
2022/04/23 09:43:28;;;;;;;4.40;4.00;;;17.90;47.50;;;;;;5023184;28;20454;-41
2022/04/23 09:46:03;;;;;;;5.17;4.67;;;17.80;47.50;;;;;;5020256;28;20827;-41
2022/04/23 09:48:30;;;;;;;5.10;4.60;;;17.50;47.40;;;;;;5030383;28;20586;-41
2022/04/23 09:50:56;;;;;;;4.80;4.10;;;17.40;48.00;;;;;;5021147;28;20453;-41
2022/04/23 09:53:27;;;;;;;5.10;4.60;;;17.50;48.00;;;;;;5027653;28;20436;-41
2022/04/23 09:55:54;;;;;;;4.73;4.33;;;17.40;48.00;;;;;;5026411;28;20479;-41
2022/04/23 09:58:20;;;;;;;4.40;4.00;;;17.50;48.20;;;;;;5028236;28;20440;-41
2022/04/23 10:00:47;;;;;;;6.27;4.07;;;17.80;47.60;;;;;;5031826;28;20543;-41
2022/04/23 10:03:14;;;;;;;5.30;4.80;;;18.00;47.00;;;;;;5027680;28;20935;-41
2022/04/23 10:05:45;;;;;;;4.23;3.93;;;17.90;46.90;;;;;;5028940;28;20874;-41
2022/04/23 10:08:12;;;;;;;9.03;4.67;;;18.10;47.10;;;;;;5024105;28;20527;-41
2022/04/23 10:10:58;;;;;;;5.27;4.70;;;18.30;47.00;;;;;;5024632;28;20448;-41
2022/04/23 10:13:29;;;;;;;4.53;4.13;;;18.20;46.20;;;;;;5029237;28;20451;-41
2022/04/23 10:15:55;;;;;;;5.30;4.80;;;18.10;46.80;;;;;;5023555;28;20501;-41
2022/04/23 10:18:22;;;;;;;8.33;4.87;;;18.40;46.40;;;;;;5024731;28;20455;-41
2022/04/23 10:21:00;;;;;;;5.27;4.20;;;18.20;46.10;;;;;;5027777;28;20459;-41
2022/04/23 10:23:53;;;;;;;4.47;4.07;;;18.40;46.50;;;;;;5026923;28;20507;-41
2022/04/23 10:26:42;;;;;;;4.60;4.20;;;18.80;45.80;;;;;;5027490;28;20547;-41
2022/04/23 10:29:16;;;;;;;5.97;5.37;;;19.00;45.20;;;;;;5028166;28;20447;-41
2022/04/23 10:31:42;;;;;;;5.30;4.80;;;18.40;45.60;;;;;;5023776;28;20448;-42
2022/04/23 10:34:31;;;;;;;5.73;5.13;;;18.20;46.50;;;;;;5024291;28;20525;-41
2022/04/23 10:37:17;;;;;;;4.77;4.27;;;18.10;46.20;;;;;;5019260;28;20456;-42
2022/04/23 10:40:06;;;;;;;6.43;5.60;;;18.50;46.70;;;;;;5015567;28;20452;-42
2022/04/23 10:42:32;;;;;;;5.97;5.47;;;18.40;46.10;;;;;;5023967;28;20448;-42
2022/04/23 10:45:06;;;;;;;6.00;5.10;;;18.30;46.50;;;;;;5028064;28;20997;-42
2022/04/23 10:47:38;;;;;;;5.80;5.20;;;18.50;47.20;;;;;;5029831;28;20475;-42
2022/04/23 10:50:18;;;;;;;7.37;6.20;;;18.00;47.10;;;;;;5028248;28;20458;-42
2022/04/23 10:52:45;;;;;;;8.90;6.10;;;18.20;47.20;;;;;;5028647;28;20462;-42
2022/04/23 10:55:12;;;;;;;5.93;5.20;;;18.50;46.70;;;;;;5026270;28;20832;-41
2022/04/23 10:57:39;;;;;;;6.43;5.83;;;18.60;46.30;;;;;;5030787;28;20436;-43
2022/04/23 11:00:30;;;;;;;6.53;5.80;;;18.60;46.40;;;;;;5028402;28;20444;-41
2022/04/23 11:03:05;;;;;;;6.90;6.30;;;18.70;46.30;;;;;;5025216;28;20950;-42
2022/04/23 11:13:53;;;;;;;6.97;6.33;;;18.30;46.70;;;;;;5026163;28;20501;-42
2022/04/23 11:16:21;;;;;;;7.30;6.63;;;18.10;47.10;;;;;;5023714;28;20947;-42
2022/04/23 11:18:52;;;;;;;7.83;7.07;;;18.10;47.40;;;;;;5023485;28;21234;-41
2022/04/23 11:21:25;;;;;;;8.20;7.40;;;18.30;47.00;;;;;;5021568;28;20452;-42
2022/04/23 11:23:54;;;;;;;6.90;6.23;;;18.20;47.20;;;;;;5028327;28;20444;-43
2022/04/23 11:26:26;;;;;;;7.20;6.50;;;18.30;47.10;;;;;;5016735;28;20437;-42
2022/04/23 11:28:59;;;;;;;7.50;6.80;;;18.30;46.90;;;;;;5026331;28;20514;-42
2022/04/23 11:31:25;;;;;;;9.80;6.80;;;18.50;46.70;;;;;;5026928;28;20444;-42
2022/04/23 11:34:01;;;;;;;6.80;6.10;;;18.30;47.00;;;;;;5027200;28;20993;-42
2022/04/23 11:36:29;;;;;;;7.33;6.63;;;18.10;47.70;;;;;;5027122;28;20530;-42
2022/04/23 11:38:55;;;;;;;8.53;6.13;;;18.20;47.30;;;;;;5022911;28;20480;-42
2022/04/23 11:41:32;;;;;;;7.70;7.00;;;18.60;46.90;;;;;;5026596;28;20490;-42
2022/04/23 11:44:09;;;;;;;7.30;6.60;;;18.70;46.70;;;;;;5019072;28;20471;-42
2022/04/23 11:46:50;;;;;;;9.10;6.20;;;18.80;46.40;;;;;;5021733;28;20436;-43
2022/04/23 11:49:30;;;;;;;7.10;6.23;;;18.40;46.90;;;;;;5028333;28;20447;-42
2022/04/23 11:52:04;;;;;;;6.67;6.07;;;18.60;47.40;;;;;;5026765;28;20451;-42
2022/04/23 11:54:35;;;;;;;7.00;6.30;;;18.80;46.80;;;;;;5020295;28;20545;-41
2022/04/23 11:57:01;;;;;;;5.77;5.37;;;18.80;46.30;;;;;;5024830;28;20448;-41
2022/04/23 11:59:35;;;;;;;6.80;6.17;;;19.10;46.40;;;;;;5023086;28;20501;-42
2022/04/23 12:02:01;;;;;;;6.40;5.80;;;19.10;45.80;;;;;;5026929;28;20242;-42
2022/04/23 12:04:26;;;;;;;6.30;5.70;;;18.90;46.50;;;;;;5025132;28;20911;-41
2022/04/23 12:07:00;;;;;;;9.90;6.23;;;19.00;46.50;;;;;;5025555;28;20194;-41
2022/04/23 12:09:25;;;;;;;6.83;6.23;;;19.00;46.40;;;;;;5022160;28;20652;-42
2022/04/23 12:12:02;;;;;;;7.97;7.20;;;19.20;46.10;;;;;;5027794;28;20478;-41
2022/04/23 12:14:28;;;;;;;6.67;6.07;;;19.40;45.50;;;;;;5028673;28;20229;-41
2022/04/23 12:17:06;;;;;;;5.63;5.13;;;19.30;45.00;;;;;;5027761;28;20497;-41
2022/04/23 12:19:32;;;;;;;7.77;6.93;;;19.30;45.00;;;;;;5027455;28;20205;-41
2022/04/23 12:21:58;;;;;;;7.50;6.80;;;19.50;45.40;;;;;;5028700;28;20945;-41
2022/04/23 12:24:34;;;;;;;6.27;5.73;;;19.60;45.20;;;;;;5023363;28;20636;-42
2022/04/23 12:27:04;;;;;;;7.27;6.67;;;19.60;44.90;;;;;;5024808;28;20193;-42
2022/04/23 12:40:57;;;;;;;7.60;6.90;;;19.70;44.80;;;;;;5030993;28;20562;-41
2022/04/23 12:43:32;;;;;;;6.33;5.83;;;19.60;44.60;;;;;;5026570;28;20435;-41
2022/04/23 12:46:05;;;;;;;7.13;6.53;;;19.80;44.60;;;;;;5026033;28;20814;-42
2022/04/23 12:48:33;;;;;;;9.00;8.20;;;20.00;44.80;;;;;;5021355;28;20986;-41
2022/04/23 12:51:06;;;;;;;7.20;6.50;;;20.00;44.20;;;;;;5029081;28;20445;-41
2022/04/23 12:53:36;;;;;;;7.97;7.00;;;20.00;44.70;;;;;;5033264;28;20879;-41
2022/04/23 12:56:05;;;;;;;9.37;7.97;;;19.90;44.80;;;;;;5033353;28;20484;-42
2022/04/23 12:58:32;;;;;;;7.47;6.87;;;19.90;44.40;;;;;;5031374;28;20857;-41
2022/04/23 13:00:58;;;;;;;7.17;6.60;;;19.90;44.70;;;;;;5032355;28;20493;-41
2022/04/23 13:03:41;;;;;;;7.80;7.17;;;20.00;44.50;;;;;;5033640;28;20467;-41
2022/04/23 13:08:56;;;;;;;7.23;6.53;;;20.00;44.00;;;;;;5031782;28;20594;-42
2022/04/23 13:11:26;;;;;;;9.07;8.20;;;20.00;44.50;;;;;;5029732;28;20451;-41
2022/04/23 13:14:00;;;;;;;8.70;7.80;;;19.90;44.10;;;;;;5031443;28;20446;-41
2022/04/23 13:16:28;;;;;;;10.43;7.37;;;19.90;44.20;;;;;;5031855;28;20454;-42
2022/04/23 13:19:01;;;;;;;9.20;8.30;;;20.10;44.10;;;;;;5033651;28;20432;-43
2022/04/23 13:21:28;;;;;;;8.40;7.60;;;20.20;43.70;;;;;;5030797;28;20436;-41